Terminal Aerodrome Forecast
Issued by NWS Sterling, VA

Home | Current Version | Previous Version | Text Only | Print | Product List | Glossary On
Versions: 1 2 3 4 5 6 7 8 9 10 11 12 13 14
000
FTUS41 KLWX 150500
TAFCHO
TAF
KCHO 150520Z 1506/1606 00000KT P6SM SCT045
     FM150800 00000KT 5SM BR SCT045
     FM150900 00000KT 3SM BR FEW040 SCT250
     FM151100 00000KT 1SM BR FEW040 SCT250
     FM151300 00000KT 3SM BR FEW040 SCT250
     FM151400 00000KT P6SM FEW040 SCT250
     FM160300 VRB03KT P6SM BKN045 BKN060=

USA.gov is the U.S. government's official web portal to all federal, state and local government web resources and services.